Goodfellow AFB, Texas
Current Conditions -  °F | °C
As of 11:51 PM on Wednesday 17 Dec 2014 (Local Time) from KSJT Reporting Station
Overcast Overcast  
Wind Chill: 50°   Ceiling: 400
Heat Index: 50°   Visibility: 10mi
Dew Point: 48°   Wind: 7mph
Humidity: 93%   Direction: 220°SW
Pressure: 30.09"   Gusts: NA
Location:  31.45°N, 100.42°W
Report Text: KSJT 180551Z AUTO 22006KT 10SM OVC004 10/09 A3009 RMK AO2 SLP186 T01000089 10133 20061 401500061 51005
Loading
Personal Weather Stations






























Interactive Weather Map New forecast layout! Learn more

10-Day Weather Forecast

Advertisements
Track Severe Weather on mobile